sensor_id;sensor_type;location;lat;lon;timestamp;P1;durP1;ratioP1;P2;durP2;ratioP2
51724;SDS011;37801;53.224;6.552;2022-09-29T00:00:06;6.18;;;2.90;;
51724;SDS011;37801;53.224;6.552;2022-09-29T00:02:32;5.00;;;3.03;;
51724;SDS011;37801;53.224;6.552;2022-09-29T00:04:58;4.53;;;2.90;;
51724;SDS011;37801;53.224;6.552;2022-09-29T00:07:24;4.57;;;2.95;;
51724;SDS011;37801;53.224;6.552;2022-09-29T00:09:49;4.57;;;2.83;;
51724;SDS011;37801;53.224;6.552;2022-09-29T00:12:15;4.30;;;3.05;;
51724;SDS011;37801;53.224;6.552;2022-09-29T00:14:41;3.92;;;3.00;;
51724;SDS011;37801;53.224;6.552;2022-09-29T00:17:07;4.68;;;3.20;;
51724;SDS011;37801;53.224;6.552;2022-09-29T00:19:32;4.45;;;3.17;;
51724;SDS011;37801;53.224;6.552;2022-09-29T00:21:58;4.43;;;3.33;;
51724;SDS011;37801;53.224;6.552;2022-09-29T00:24:24;5.38;;;3.90;;
51724;SDS011;37801;53.224;6.552;2022-09-29T00:26:50;5.13;;;3.60;;
51724;SDS011;37801;53.224;6.552;2022-09-29T00:29:16;6.70;;;3.83;;
51724;SDS011;37801;53.224;6.552;2022-09-29T00:31:41;6.80;;;4.00;;
51724;SDS011;37801;53.224;6.552;2022-09-29T00:34:07;6.82;;;4.05;;
51724;SDS011;37801;53.224;6.552;2022-09-29T00:36:33;6.10;;;3.95;;
51724;SDS011;37801;53.224;6.552;2022-09-29T00:38:58;4.72;;;3.67;;
51724;SDS011;37801;53.224;6.552;2022-09-29T00:41:26;6.22;;;3.50;;
51724;SDS011;37801;53.224;6.552;2022-09-29T00:46:48;5.30;;;3.38;;
51724;SDS011;37801;53.224;6.552;2022-09-29T00:52:06;5.18;;;4.00;;
51724;SDS011;37801;53.224;6.552;2022-09-29T00:54:40;7.30;;;3.85;;
51724;SDS011;37801;53.224;6.552;2022-09-29T00:57:08;5.15;;;4.05;;
51724;SDS011;37801;53.224;6.552;2022-09-29T00:59:50;5.75;;;4.15;;
51724;SDS011;37801;53.224;6.552;2022-09-29T01:02:52;6.05;;;4.10;;
51724;SDS011;37801;53.224;6.552;2022-09-29T01:05:25;5.65;;;4.32;;
51724;SDS011;37801;53.224;6.552;2022-09-29T01:07:57;6.22;;;4.07;;
51724;SDS011;37801;53.224;6.552;2022-09-29T01:10:30;5.78;;;4.55;;
51724;SDS011;37801;53.224;6.552;2022-09-29T01:12:56;5.63;;;4.43;;
51724;SDS011;37801;53.224;6.552;2022-09-29T01:15:22;5.70;;;4.57;;
51724;SDS011;37801;53.224;6.552;2022-09-29T01:17:48;6.93;;;5.15;;
51724;SDS011;37801;53.224;6.552;2022-09-29T01:20:18;6.20;;;4.63;;
51724;SDS011;37801;53.224;6.552;2022-09-29T01:26:06;7.78;;;5.70;;
51724;SDS011;37801;53.224;6.552;2022-09-29T01:41:42;7.25;;;5.47;;
51724;SDS011;37801;53.224;6.552;2022-09-29T01:44:18;7.45;;;5.63;;
51724;SDS011;37801;53.224;6.552;2022-09-29T01:47:07;6.93;;;5.88;;
51724;SDS011;37801;53.224;6.552;2022-09-29T01:49:37;7.70;;;5.53;;
51724;SDS011;37801;53.224;6.552;2022-09-29T01:52:11;7.10;;;5.78;;
51724;SDS011;37801;53.224;6.552;2022-09-29T01:57:20;6.40;;;5.35;;
51724;SDS011;37801;53.224;6.552;2022-09-29T02:00:05;7.47;;;5.70;;
51724;SDS011;37801;53.224;6.552;2022-09-29T02:05:17;8.05;;;5.90;;
51724;SDS011;37801;53.224;6.552;2022-09-29T02:07:46;7.43;;;6.10;;
51724;SDS011;37801;53.224;6.552;2022-09-29T02:10:27;9.50;;;5.95;;
51724;SDS011;37801;53.224;6.552;2022-09-29T02:12:56;7.50;;;6.22;;
51724;SDS011;37801;53.224;6.552;2022-09-29T02:15:25;7.63;;;6.55;;
51724;SDS011;37801;53.224;6.552;2022-09-29T02:17:54;8.50;;;6.40;;
51724;SDS011;37801;53.224;6.552;2022-09-29T02:20:24;7.60;;;6.15;;
51724;SDS011;37801;53.224;6.552;2022-09-29T02:22:50;8.27;;;6.00;;
51724;SDS011;37801;53.224;6.552;2022-09-29T02:25:16;8.18;;;6.45;;
51724;SDS011;37801;53.224;6.552;2022-09-29T02:27:43;7.55;;;6.35;;
51724;SDS011;37801;53.224;6.552;2022-09-29T02:30:11;7.35;;;6.55;;
51724;SDS011;37801;53.224;6.552;2022-09-29T02:32:37;7.60;;;6.22;;
51724;SDS011;37801;53.224;6.552;2022-09-29T02:35:04;8.27;;;6.63;;
51724;SDS011;37801;53.224;6.552;2022-09-29T02:37:52;8.32;;;6.20;;
51724;SDS011;37801;53.224;6.552;2022-09-29T02:40:27;7.25;;;6.03;;
51724;SDS011;37801;53.224;6.552;2022-09-29T02:53:20;7.55;;;6.32;;
51724;SDS011;37801;53.224;6.552;2022-09-29T02:58:41;8.35;;;6.80;;
51724;SDS011;37801;53.224;6.552;2022-09-29T03:01:14;7.07;;;6.28;;
51724;SDS011;37801;53.224;6.552;2022-09-29T03:03:40;9.90;;;6.25;;
51724;SDS011;37801;53.224;6.552;2022-09-29T03:06:07;7.70;;;6.15;;
51724;SDS011;37801;53.224;6.552;2022-09-29T03:08:34;8.93;;;6.93;;
51724;SDS011;37801;53.224;6.552;2022-09-29T03:11:00;7.82;;;6.90;;
51724;SDS011;37801;53.224;6.552;2022-09-29T03:13:26;9.55;;;6.93;;
51724;SDS011;37801;53.224;6.552;2022-09-29T03:15:51;9.00;;;7.50;;
51724;SDS011;37801;53.224;6.552;2022-09-29T03:18:17;8.32;;;6.30;;
51724;SDS011;37801;53.224;6.552;2022-09-29T03:20:43;8.82;;;6.45;;
51724;SDS011;37801;53.224;6.552;2022-09-29T03:23:09;9.00;;;6.65;;
51724;SDS011;37801;53.224;6.552;2022-09-29T03:25:34;6.97;;;6.25;;
51724;SDS011;37801;53.224;6.552;2022-09-29T03:28:00;8.80;;;6.72;;
51724;SDS011;37801;53.224;6.552;2022-09-29T03:30:26;7.60;;;6.32;;
51724;SDS011;37801;53.224;6.552;2022-09-29T03:32:51;8.50;;;6.63;;
51724;SDS011;37801;53.224;6.552;2022-09-29T03:35:18;8.18;;;6.05;;
51724;SDS011;37801;53.224;6.552;2022-09-29T03:37:44;8.35;;;6.22;;
51724;SDS011;37801;53.224;6.552;2022-09-29T03:40:10;8.75;;;6.72;;
51724;SDS011;37801;53.224;6.552;2022-09-29T03:42:36;9.25;;;6.88;;
51724;SDS011;37801;53.224;6.552;2022-09-29T03:45:02;9.63;;;7.00;;
51724;SDS011;37801;53.224;6.552;2022-09-29T03:47:29;8.45;;;7.03;;
51724;SDS011;37801;53.224;6.552;2022-09-29T03:49:55;8.38;;;6.72;;
51724;SDS011;37801;53.224;6.552;2022-09-29T03:52:21;8.98;;;6.93;;
51724;SDS011;37801;53.224;6.552;2022-09-29T03:54:47;10.48;;;7.78;;
51724;SDS011;37801;53.224;6.552;2022-09-29T03:57:12;9.20;;;7.50;;
51724;SDS011;37801;53.224;6.552;2022-09-29T03:59:38;9.40;;;7.13;;
51724;SDS011;37801;53.224;6.552;2022-09-29T04:02:04;8.63;;;6.90;;
51724;SDS011;37801;53.224;6.552;2022-09-29T04:04:29;8.98;;;7.53;;
51724;SDS011;37801;53.224;6.552;2022-09-29T04:06:55;8.35;;;6.78;;
51724;SDS011;37801;53.224;6.552;2022-09-29T04:09:21;8.57;;;6.63;;
51724;SDS011;37801;53.224;6.552;2022-09-29T04:11:47;9.63;;;7.80;;
51724;SDS011;37801;53.224;6.552;2022-09-29T04:14:12;8.52;;;7.18;;
51724;SDS011;37801;53.224;6.552;2022-09-29T04:16:38;8.90;;;7.53;;
51724;SDS011;37801;53.224;6.552;2022-09-29T04:19:04;8.80;;;7.45;;
51724;SDS011;37801;53.224;6.552;2022-09-29T04:21:29;10.30;;;7.30;;
51724;SDS011;37801;53.224;6.552;2022-09-29T04:23:55;9.27;;;7.72;;
51724;SDS011;37801;53.224;6.552;2022-09-29T04:26:21;9.02;;;7.35;;
51724;SDS011;37801;53.224;6.552;2022-09-29T04:28:46;9.77;;;7.43;;
51724;SDS011;37801;53.224;6.552;2022-09-29T04:31:12;11.52;;;7.60;;
51724;SDS011;37801;53.224;6.552;2022-09-29T04:33:38;11.15;;;7.13;;
51724;SDS011;37801;53.224;6.552;2022-09-29T04:36:05;9.15;;;7.07;;
51724;SDS011;37801;53.224;6.552;2022-09-29T04:38:31;9.15;;;7.45;;
51724;SDS011;37801;53.224;6.552;2022-09-29T04:40:57;9.05;;;7.35;;
51724;SDS011;37801;53.224;6.552;2022-09-29T04:43:23;8.65;;;7.28;;
51724;SDS011;37801;53.224;6.552;2022-09-29T04:45:48;8.52;;;7.57;;
51724;SDS011;37801;53.224;6.552;2022-09-29T04:48:15;9.70;;;7.22;;
51724;SDS011;37801;53.224;6.552;2022-09-29T04:50:40;8.85;;;7.18;;
51724;SDS011;37801;53.224;6.552;2022-09-29T04:53:06;8.27;;;6.97;;
51724;SDS011;37801;53.224;6.552;2022-09-29T04:55:35;10.70;;;7.75;;
51724;SDS011;37801;53.224;6.552;2022-09-29T04:58:04;9.38;;;7.80;;
51724;SDS011;37801;53.224;6.552;2022-09-29T05:00:30;10.35;;;8.10;;
51724;SDS011;37801;53.224;6.552;2022-09-29T05:02:56;10.82;;;7.63;;
51724;SDS011;37801;53.224;6.552;2022-09-29T05:05:22;9.68;;;7.75;;
51724;SDS011;37801;53.224;6.552;2022-09-29T05:07:48;10.07;;;7.93;;
51724;SDS011;37801;53.224;6.552;2022-09-29T05:10:14;11.70;;;8.55;;
51724;SDS011;37801;53.224;6.552;2022-09-29T05:12:40;11.75;;;8.88;;
51724;SDS011;37801;53.224;6.552;2022-09-29T05:15:05;12.27;;;8.38;;
51724;SDS011;37801;53.224;6.552;2022-09-29T05:17:32;10.30;;;8.52;;
51724;SDS011;37801;53.224;6.552;2022-09-29T05:19:58;10.95;;;9.15;;
51724;SDS011;37801;53.224;6.552;2022-09-29T05:22:23;10.35;;;8.45;;
51724;SDS011;37801;53.224;6.552;2022-09-29T05:24:50;11.00;;;8.95;;
51724;SDS011;37801;53.224;6.552;2022-09-29T05:27:16;11.80;;;9.40;;
51724;SDS011;37801;53.224;6.552;2022-09-29T05:29:42;11.18;;;9.07;;
51724;SDS011;37801;53.224;6.552;2022-09-29T05:32:07;11.30;;;9.27;;
51724;SDS011;37801;53.224;6.552;2022-09-29T05:34:33;15.32;;;10.68;;
51724;SDS011;37801;53.224;6.552;2022-09-29T05:36:59;12.20;;;10.05;;
51724;SDS011;37801;53.224;6.552;2022-09-29T05:39:25;12.63;;;9.85;;
51724;SDS011;37801;53.224;6.552;2022-09-29T05:41:50;10.88;;;9.48;;
51724;SDS011;37801;53.224;6.552;2022-09-29T05:44:16;11.85;;;9.82;;
51724;SDS011;37801;53.224;6.552;2022-09-29T05:46:42;11.32;;;9.07;;
51724;SDS011;37801;53.224;6.552;2022-09-29T05:49:08;12.18;;;9.57;;
51724;SDS011;37801;53.224;6.552;2022-09-29T05:51:37;12.48;;;9.95;;
51724;SDS011;37801;53.224;6.552;2022-09-29T05:54:03;13.88;;;11.05;;
51724;SDS011;37801;53.224;6.552;2022-09-29T05:56:28;14.50;;;10.18;;
51724;SDS011;37801;53.224;6.552;2022-09-29T05:58:54;12.73;;;9.25;;
51724;SDS011;37801;53.224;6.552;2022-09-29T06:01:24;12.43;;;9.63;;
51724;SDS011;37801;53.224;6.552;2022-09-29T06:03:53;12.30;;;9.88;;
51724;SDS011;37801;53.224;6.552;2022-09-29T06:06:21;11.02;;;8.90;;
51724;SDS011;37801;53.224;6.552;2022-09-29T06:08:48;12.55;;;9.18;;
51724;SDS011;37801;53.224;6.552;2022-09-29T06:11:19;11.23;;;9.15;;
51724;SDS011;37801;53.224;6.552;2022-09-29T06:13:47;12.80;;;9.23;;
51724;SDS011;37801;53.224;6.552;2022-09-29T06:16:15;11.45;;;9.57;;
51724;SDS011;37801;53.224;6.552;2022-09-29T06:18:42;12.60;;;9.82;;
51724;SDS011;37801;53.224;6.552;2022-09-29T06:21:09;13.27;;;10.13;;
51724;SDS011;37801;53.224;6.552;2022-09-29T06:23:37;11.10;;;9.57;;
51724;SDS011;37801;53.224;6.552;2022-09-29T06:26:03;12.98;;;10.20;;
51724;SDS011;37801;53.224;6.552;2022-09-29T06:28:34;11.93;;;9.98;;
51724;SDS011;37801;53.224;6.552;2022-09-29T06:31:00;12.13;;;9.57;;
51724;SDS011;37801;53.224;6.552;2022-09-29T06:33:29;13.30;;;10.75;;
51724;SDS011;37801;53.224;6.552;2022-09-29T06:35:56;11.50;;;10.18;;
51724;SDS011;37801;53.224;6.552;2022-09-29T06:38:41;16.17;;;12.05;;
51724;SDS011;37801;53.224;6.552;2022-09-29T06:41:07;15.10;;;12.50;;
51724;SDS011;37801;53.224;6.552;2022-09-29T06:43:33;16.13;;;12.70;;
51724;SDS011;37801;53.224;6.552;2022-09-29T06:46:00;17.73;;;12.50;;
51724;SDS011;37801;53.224;6.552;2022-09-29T06:48:26;18.27;;;12.20;;
51724;SDS011;37801;53.224;6.552;2022-09-29T06:50:54;14.93;;;12.07;;
51724;SDS011;37801;53.224;6.552;2022-09-29T06:53:20;17.90;;;12.15;;
51724;SDS011;37801;53.224;6.552;2022-09-29T06:55:53;16.55;;;13.10;;
51724;SDS011;37801;53.224;6.552;2022-09-29T07:00:47;14.90;;;11.93;;
51724;SDS011;37801;53.224;6.552;2022-09-29T07:03:12;16.58;;;11.98;;
51724;SDS011;37801;53.224;6.552;2022-09-29T07:05:38;17.63;;;12.80;;
51724;SDS011;37801;53.224;6.552;2022-09-29T07:08:04;17.33;;;13.50;;
51724;SDS011;37801;53.224;6.552;2022-09-29T07:10:30;16.58;;;12.73;;
51724;SDS011;37801;53.224;6.552;2022-09-29T07:12:56;16.02;;;12.75;;
51724;SDS011;37801;53.224;6.552;2022-09-29T07:15:22;17.85;;;13.45;;
51724;SDS011;37801;53.224;6.552;2022-09-29T07:17:55;16.40;;;13.13;;
51724;SDS011;37801;53.224;6.552;2022-09-29T07:20:26;18.38;;;13.82;;
51724;SDS011;37801;53.224;6.552;2022-09-29T07:22:53;18.25;;;14.30;;
51724;SDS011;37801;53.224;6.552;2022-09-29T07:25:19;19.00;;;14.85;;
51724;SDS011;37801;53.224;6.552;2022-09-29T07:27:46;18.58;;;15.18;;
51724;SDS011;37801;53.224;6.552;2022-09-29T07:30:13;18.15;;;14.50;;
51724;SDS011;37801;53.224;6.552;2022-09-29T07:32:39;19.30;;;15.55;;
51724;SDS011;37801;53.224;6.552;2022-09-29T07:35:05;19.30;;;15.07;;
51724;SDS011;37801;53.224;6.552;2022-09-29T07:37:31;17.75;;;14.55;;
51724;SDS011;37801;53.224;6.552;2022-09-29T07:39:57;18.75;;;15.10;;
51724;SDS011;37801;53.224;6.552;2022-09-29T07:42:22;23.02;;;16.05;;
51724;SDS011;37801;53.224;6.552;2022-09-29T07:44:48;20.73;;;15.93;;
51724;SDS011;37801;53.224;6.552;2022-09-29T07:47:14;21.50;;;15.95;;
51724;SDS011;37801;53.224;6.552;2022-09-29T07:49:40;21.63;;;15.68;;
51724;SDS011;37801;53.224;6.552;2022-09-29T07:52:06;22.30;;;15.65;;
51724;SDS011;37801;53.224;6.552;2022-09-29T07:54:33;19.17;;;15.43;;
51724;SDS011;37801;53.224;6.552;2022-09-29T07:56:58;20.83;;;15.50;;
51724;SDS011;37801;53.224;6.552;2022-09-29T07:59:27;22.00;;;15.98;;
51724;SDS011;37801;53.224;6.552;2022-09-29T08:01:52;20.25;;;15.85;;
51724;SDS011;37801;53.224;6.552;2022-09-29T08:04:18;22.42;;;16.75;;
51724;SDS011;37801;53.224;6.552;2022-09-29T08:06:44;20.50;;;15.98;;
51724;SDS011;37801;53.224;6.552;2022-09-29T08:09:10;21.40;;;15.65;;
51724;SDS011;37801;53.224;6.552;2022-09-29T08:11:37;21.30;;;16.95;;
51724;SDS011;37801;53.224;6.552;2022-09-29T08:14:04;23.35;;;16.20;;
51724;SDS011;37801;53.224;6.552;2022-09-29T08:16:31;22.92;;;16.38;;
51724;SDS011;37801;53.224;6.552;2022-09-29T08:18:57;23.98;;;17.52;;
51724;SDS011;37801;53.224;6.552;2022-09-29T08:21:23;22.25;;;16.50;;
51724;SDS011;37801;53.224;6.552;2022-09-29T08:23:49;25.45;;;17.88;;
51724;SDS011;37801;53.224;6.552;2022-09-29T08:26:16;24.33;;;17.92;;
51724;SDS011;37801;53.224;6.552;2022-09-29T08:28:44;25.10;;;17.70;;
51724;SDS011;37801;53.224;6.552;2022-09-29T08:31:15;23.60;;;17.98;;
51724;SDS011;37801;53.224;6.552;2022-09-29T08:33:47;24.20;;;17.67;;
51724;SDS011;37801;53.224;6.552;2022-09-29T08:36:17;24.42;;;18.10;;
51724;SDS011;37801;53.224;6.552;2022-09-29T08:38:45;22.70;;;17.85;;
51724;SDS011;37801;53.224;6.552;2022-09-29T08:43:47;22.50;;;16.65;;
51724;SDS011;37801;53.224;6.552;2022-09-29T08:46:31;22.23;;;17.50;;
51724;SDS011;37801;53.224;6.552;2022-09-29T08:49:05;23.65;;;17.77;;
51724;SDS011;37801;53.224;6.552;2022-09-29T08:51:38;21.45;;;17.95;;
51724;SDS011;37801;53.224;6.552;2022-09-29T08:54:30;23.27;;;17.23;;
51724;SDS011;37801;53.224;6.552;2022-09-29T08:56:59;22.88;;;18.25;;
51724;SDS011;37801;53.224;6.552;2022-09-29T08:59:26;21.92;;;17.48;;
51724;SDS011;37801;53.224;6.552;2022-09-29T09:07:42;24.88;;;18.52;;
51724;SDS011;37801;53.224;6.552;2022-09-29T09:12:47;28.65;;;20.40;;
51724;SDS011;37801;53.224;6.552;2022-09-29T09:22:56;23.60;;;16.33;;
51724;SDS011;37801;53.224;6.552;2022-09-29T09:25:29;24.98;;;16.10;;
51724;SDS011;37801;53.224;6.552;2022-09-29T09:28:27;19.88;;;14.95;;
51724;SDS011;37801;53.224;6.552;2022-09-29T09:31:05;20.33;;;14.45;;
51724;SDS011;37801;53.224;6.552;2022-09-29T09:36:22;18.73;;;14.18;;
51724;SDS011;37801;53.224;6.552;2022-09-29T09:41:30;15.25;;;11.05;;
51724;SDS011;37801;53.224;6.552;2022-09-29T09:44:09;16.00;;;11.05;;
51724;SDS011;37801;53.224;6.552;2022-09-29T09:46:51;15.38;;;10.73;;
51724;SDS011;37801;53.224;6.552;2022-09-29T09:54:55;12.73;;;9.63;;
51724;SDS011;37801;53.224;6.552;2022-09-29T09:57:26;12.70;;;8.63;;
51724;SDS011;37801;53.224;6.552;2022-09-29T10:02:51;10.88;;;7.50;;
51724;SDS011;37801;53.224;6.552;2022-09-29T10:05:21;8.50;;;6.50;;
51724;SDS011;37801;53.224;6.552;2022-09-29T10:07:49;8.07;;;6.35;;
51724;SDS011;37801;53.224;6.552;2022-09-29T10:10:17;9.27;;;6.82;;
51724;SDS011;37801;53.224;6.552;2022-09-29T10:12:44;12.35;;;8.15;;
51724;SDS011;37801;53.224;6.552;2022-09-29T10:15:16;9.95;;;7.10;;
51724;SDS011;37801;53.224;6.552;2022-09-29T10:17:48;9.38;;;7.00;;
51724;SDS011;37801;53.224;6.552;2022-09-29T10:20:28;9.60;;;6.55;;
51724;SDS011;37801;53.224;6.552;2022-09-29T10:25:45;6.72;;;5.10;;
51724;SDS011;37801;53.224;6.552;2022-09-29T10:28:56;9.43;;;6.25;;
51724;SDS011;37801;53.224;6.552;2022-09-29T10:31:25;10.63;;;7.13;;
51724;SDS011;37801;53.224;6.552;2022-09-29T10:34:20;9.90;;;6.97;;
51724;SDS011;37801;53.224;6.552;2022-09-29T10:36:50;10.43;;;7.75;;
51724;SDS011;37801;53.224;6.552;2022-09-29T10:41:54;10.45;;;7.55;;
51724;SDS011;37801;53.224;6.552;2022-09-29T10:44:20;10.65;;;7.75;;
51724;SDS011;37801;53.224;6.552;2022-09-29T10:46:53;12.77;;;6.82;;
51724;SDS011;37801;53.224;6.552;2022-09-29T10:49:21;7.93;;;5.43;;
51724;SDS011;37801;53.224;6.552;2022-09-29T10:51:53;7.03;;;4.50;;
51724;SDS011;37801;53.224;6.552;2022-09-29T10:54:20;6.85;;;5.00;;
51724;SDS011;37801;53.224;6.552;2022-09-29T10:56:49;6.13;;;3.83;;
51724;SDS011;37801;53.224;6.552;2022-09-29T10:59:16;6.03;;;3.90;;
51724;SDS011;37801;53.224;6.552;2022-09-29T11:01:44;4.43;;;3.13;;
51724;SDS011;37801;53.224;6.552;2022-09-29T11:04:32;6.05;;;3.38;;
51724;SDS011;37801;53.224;6.552;2022-09-29T11:07:07;5.90;;;3.28;;
51724;SDS011;37801;53.224;6.552;2022-09-29T11:09:44;4.43;;;3.00;;
51724;SDS011;37801;53.224;6.552;2022-09-29T11:12:24;6.60;;;3.90;;
51724;SDS011;37801;53.224;6.552;2022-09-29T11:14:59;6.75;;;3.47;;
51724;SDS011;37801;53.224;6.552;2022-09-29T11:17:36;4.40;;;3.00;;
51724;SDS011;37801;53.224;6.552;2022-09-29T11:20:03;5.05;;;3.20;;
51724;SDS011;37801;53.224;6.552;2022-09-29T11:28:23;5.55;;;4.07;;
51724;SDS011;37801;53.224;6.552;2022-09-29T11:36:56;6.38;;;3.90;;
51724;SDS011;37801;53.224;6.552;2022-09-29T11:48:20;2.33;;;1.60;;
51724;SDS011;37801;53.224;6.552;2022-09-29T11:51:04;3.23;;;1.63;;
51724;SDS011;37801;53.224;6.552;2022-09-29T11:56:34;4.90;;;2.40;;
51724;SDS011;37801;53.224;6.552;2022-09-29T12:09:35;2.38;;;1.17;;
51724;SDS011;37801;53.224;6.552;2022-09-29T12:12:28;3.10;;;1.50;;
51724;SDS011;37801;53.224;6.552;2022-09-29T12:17:33;2.00;;;1.30;;
51724;SDS011;37801;53.224;6.552;2022-09-29T12:20:13;2.22;;;1.48;;
51724;SDS011;37801;53.224;6.552;2022-09-29T12:22:44;2.17;;;1.50;;
51724;SDS011;37801;53.224;6.552;2022-09-29T12:25:13;2.28;;;1.20;;
51724;SDS011;37801;53.224;6.552;2022-09-29T12:27:41;2.40;;;1.30;;
51724;SDS011;37801;53.224;6.552;2022-09-29T12:30:23;2.63;;;1.65;;
51724;SDS011;37801;53.224;6.552;2022-09-29T12:35:42;2.47;;;1.50;;
51724;SDS011;37801;53.224;6.552;2022-09-29T12:38:55;2.13;;;1.40;;
51724;SDS011;37801;53.224;6.552;2022-09-29T12:41:28;2.72;;;1.40;;
51724;SDS011;37801;53.224;6.552;2022-09-29T12:46:34;2.97;;;1.17;;
51724;SDS011;37801;53.224;6.552;2022-09-29T12:52:03;2.17;;;1.10;;
51724;SDS011;37801;53.224;6.552;2022-09-29T12:54:46;2.92;;;1.30;;
51724;SDS011;37801;53.224;6.552;2022-09-29T12:57:19;4.53;;;1.40;;
51724;SDS011;37801;53.224;6.552;2022-09-29T12:59:54;1.65;;;1.00;;
51724;SDS011;37801;53.224;6.552;2022-09-29T13:27:43;2.53;;;1.30;;
51724;SDS011;37801;53.224;6.552;2022-09-29T13:32:48;2.97;;;1.13;;
51724;SDS011;37801;53.224;6.552;2022-09-29T13:35:17;2.67;;;1.13;;
51724;SDS011;37801;53.224;6.552;2022-09-29T13:40:20;3.03;;;0.93;;
51724;SDS011;37801;53.224;6.552;2022-09-29T13:42:49;1.50;;;1.10;;
51724;SDS011;37801;53.224;6.552;2022-09-29T13:55:56;1.80;;;0.70;;
51724;SDS011;37801;53.224;6.552;2022-09-29T14:01:01;3.15;;;0.60;;
51724;SDS011;37801;53.224;6.552;2022-09-29T14:03:35;1.55;;;0.80;;
51724;SDS011;37801;53.224;6.552;2022-09-29T14:06:03;1.90;;;0.90;;
51724;SDS011;37801;53.224;6.552;2022-09-29T14:08:53;2.63;;;1.10;;
51724;SDS011;37801;53.224;6.552;2022-09-29T14:11:35;2.30;;;1.17;;
51724;SDS011;37801;53.224;6.552;2022-09-29T14:14:04;4.22;;;1.40;;
51724;SDS011;37801;53.224;6.552;2022-09-29T14:33:16;1.92;;;1.10;;
51724;SDS011;37801;53.224;6.552;2022-09-29T14:43:19;2.13;;;1.33;;
51724;SDS011;37801;53.224;6.552;2022-09-29T14:48:57;2.45;;;1.13;;
51724;SDS011;37801;53.224;6.552;2022-09-29T15:01:00;10.30;;;6.90;;
51724;SDS011;37801;53.224;6.552;2022-09-29T15:03:25;7.75;;;5.13;;
51724;SDS011;37801;53.224;6.552;2022-09-29T15:06:15;12.32;;;8.60;;
51724;SDS011;37801;53.224;6.552;2022-09-29T15:08:44;7.70;;;5.70;;
51724;SDS011;37801;53.224;6.552;2022-09-29T15:11:31;5.15;;;4.00;;
51724;SDS011;37801;53.224;6.552;2022-09-29T15:14:15;22.40;;;12.00;;
51724;SDS011;37801;53.224;6.552;2022-09-29T15:16:47;54.30;;;28.33;;
51724;SDS011;37801;53.224;6.552;2022-09-29T15:19:30;14.88;;;8.20;;
51724;SDS011;37801;53.224;6.552;2022-09-29T15:27:25;5.07;;;2.45;;
51724;SDS011;37801;53.224;6.552;2022-09-29T15:29:55;5.93;;;5.07;;
51724;SDS011;37801;53.224;6.552;2022-09-29T15:32:22;6.95;;;4.45;;
51724;SDS011;37801;53.224;6.552;2022-09-29T15:34:58;5.20;;;3.15;;
51724;SDS011;37801;53.224;6.552;2022-09-29T15:37:30;4.38;;;2.60;;
51724;SDS011;37801;53.224;6.552;2022-09-29T15:40:20;2.75;;;2.00;;
51724;SDS011;37801;53.224;6.552;2022-09-29T15:42:49;3.05;;;2.33;;
51724;SDS011;37801;53.224;6.552;2022-09-29T15:45:26;2.90;;;2.03;;
51724;SDS011;37801;53.224;6.552;2022-09-29T15:50:25;2.33;;;1.60;;
51724;SDS011;37801;53.224;6.552;2022-09-29T15:52:56;3.03;;;1.50;;
51724;SDS011;37801;53.224;6.552;2022-09-29T15:55:25;2.10;;;1.30;;
51724;SDS011;37801;53.224;6.552;2022-09-29T15:57:51;2.00;;;1.25;;
51724;SDS011;37801;53.224;6.552;2022-09-29T16:03:33;9.88;;;3.38;;
51724;SDS011;37801;53.224;6.552;2022-09-29T16:05:39;3.92;;;3.33;;
51724;SDS011;37801;53.224;6.552;2022-09-29T16:08:18;3.72;;;3.33;;
51724;SDS011;37801;53.224;6.552;2022-09-29T16:11:03;3.65;;;3.30;;
51724;SDS011;37801;53.224;6.552;2022-09-29T16:13:37;3.95;;;3.58;;
51724;SDS011;37801;53.224;6.552;2022-09-29T16:16:05;3.53;;;3.17;;
51724;SDS011;37801;53.224;6.552;2022-09-29T16:18:38;2.80;;;2.00;;
51724;SDS011;37801;53.224;6.552;2022-09-29T16:21:08;2.58;;;1.70;;
51724;SDS011;37801;53.224;6.552;2022-09-29T16:23:43;2.47;;;1.35;;
51724;SDS011;37801;53.224;6.552;2022-09-29T16:26:32;2.20;;;1.20;;
51724;SDS011;37801;53.224;6.552;2022-09-29T16:31:38;2.08;;;1.10;;
51724;SDS011;37801;53.224;6.552;2022-09-29T16:36:46;1.63;;;1.08;;
51724;SDS011;37801;53.224;6.552;2022-09-29T16:39:18;1.83;;;1.00;;
51724;SDS011;37801;53.224;6.552;2022-09-29T16:41:46;2.65;;;1.20;;
51724;SDS011;37801;53.224;6.552;2022-09-29T16:44:14;2.25;;;1.00;;
51724;SDS011;37801;53.224;6.552;2022-09-29T16:49:47;2.03;;;1.00;;
51724;SDS011;37801;53.224;6.552;2022-09-29T16:54:40;1.98;;;1.08;;
51724;SDS011;37801;53.224;6.552;2022-09-29T16:57:09;1.52;;;1.00;;
51724;SDS011;37801;53.224;6.552;2022-09-29T16:59:41;1.92;;;1.20;;
51724;SDS011;37801;53.224;6.552;2022-09-29T17:02:10;2.80;;;1.33;;
51724;SDS011;37801;53.224;6.552;2022-09-29T17:04:36;2.60;;;1.75;;
51724;SDS011;37801;53.224;6.552;2022-09-29T17:07:02;3.85;;;1.67;;
51724;SDS011;37801;53.224;6.552;2022-09-29T17:09:28;3.83;;;1.73;;
51724;SDS011;37801;53.224;6.552;2022-09-29T17:11:54;3.25;;;1.90;;
51724;SDS011;37801;53.224;6.552;2022-09-29T17:14:20;3.10;;;1.90;;
51724;SDS011;37801;53.224;6.552;2022-09-29T17:16:46;3.00;;;2.10;;
51724;SDS011;37801;53.224;6.552;2022-09-29T17:19:16;3.63;;;2.13;;
51724;SDS011;37801;53.224;6.552;2022-09-29T17:21:42;3.10;;;2.00;;
51724;SDS011;37801;53.224;6.552;2022-09-29T17:24:08;2.70;;;1.80;;
51724;SDS011;37801;53.224;6.552;2022-09-29T17:26:38;3.65;;;2.28;;
51724;SDS011;37801;53.224;6.552;2022-09-29T17:29:25;3.28;;;2.10;;
51724;SDS011;37801;53.224;6.552;2022-09-29T17:31:51;4.05;;;2.38;;
51724;SDS011;37801;53.224;6.552;2022-09-29T17:34:17;4.30;;;2.50;;
51724;SDS011;37801;53.224;6.552;2022-09-29T17:36:46;3.58;;;2.50;;
51724;SDS011;37801;53.224;6.552;2022-09-29T17:39:13;4.28;;;2.95;;
51724;SDS011;37801;53.224;6.552;2022-09-29T17:41:39;3.90;;;2.80;;
51724;SDS011;37801;53.224;6.552;2022-09-29T17:44:05;4.13;;;3.00;;
51724;SDS011;37801;53.224;6.552;2022-09-29T17:46:32;5.75;;;4.50;;
51724;SDS011;37801;53.224;6.552;2022-09-29T17:49:00;8.10;;;5.38;;
51724;SDS011;37801;53.224;6.552;2022-09-29T17:51:26;6.68;;;5.00;;
51724;SDS011;37801;53.224;6.552;2022-09-29T17:53:52;6.40;;;4.47;;
51724;SDS011;37801;53.224;6.552;2022-09-29T17:56:26;5.10;;;3.63;;
51724;SDS011;37801;53.224;6.552;2022-09-29T17:58:57;5.00;;;3.22;;
51724;SDS011;37801;53.224;6.552;2022-09-29T18:01:27;4.85;;;3.38;;
51724;SDS011;37801;53.224;6.552;2022-09-29T18:03:53;4.15;;;2.85;;
51724;SDS011;37801;53.224;6.552;2022-09-29T18:06:21;4.78;;;2.90;;
51724;SDS011;37801;53.224;6.552;2022-09-29T18:08:50;3.95;;;2.80;;
51724;SDS011;37801;53.224;6.552;2022-09-29T18:11:20;3.50;;;2.53;;
51724;SDS011;37801;53.224;6.552;2022-09-29T18:13:47;4.50;;;2.78;;
51724;SDS011;37801;53.224;6.552;2022-09-29T18:16:14;3.88;;;2.63;;
51724;SDS011;37801;53.224;6.552;2022-09-29T18:18:42;5.15;;;3.17;;
51724;SDS011;37801;53.224;6.552;2022-09-29T18:21:09;3.78;;;2.90;;
51724;SDS011;37801;53.224;6.552;2022-09-29T18:23:36;4.25;;;2.75;;
51724;SDS011;37801;53.224;6.552;2022-09-29T18:26:03;5.05;;;2.90;;
51724;SDS011;37801;53.224;6.552;2022-09-29T18:28:30;6.35;;;3.00;;
51724;SDS011;37801;53.224;6.552;2022-09-29T18:31:20;3.65;;;2.78;;
51724;SDS011;37801;53.224;6.552;2022-09-29T18:33:52;3.63;;;2.90;;
51724;SDS011;37801;53.224;6.552;2022-09-29T18:36:19;3.72;;;2.70;;
51724;SDS011;37801;53.224;6.552;2022-09-29T18:38:45;4.40;;;3.20;;
51724;SDS011;37801;53.224;6.552;2022-09-29T18:41:12;3.83;;;2.70;;
51724;SDS011;37801;53.224;6.552;2022-09-29T18:43:40;4.80;;;3.30;;